createdAt,value
2023-03-30T00:01:36.748Z,93.10
2023-03-30T00:04:04.633Z,92.50
2023-03-30T00:06:32.408Z,91.80
2023-03-30T00:09:00.193Z,91.50
2023-03-30T00:11:28.533Z,91.60
2023-03-30T00:13:56.354Z,91.40
2023-03-30T00:16:24.010Z,91.00
2023-03-30T00:18:51.924Z,91.20
2023-03-30T00:21:21.146Z,91.10
2023-03-30T00:23:50.316Z,90.80
2023-03-30T00:26:18.376Z,90.60
2023-03-30T00:28:46.792Z,90.40
2023-03-30T00:31:14.818Z,90.30
2023-03-30T00:33:46.953Z,90.70
2023-03-30T00:36:16.054Z,91.10
2023-03-30T00:38:44.274Z,91.30
2023-03-30T00:41:12.746Z,91.40
2023-03-30T00:44:34.248Z,92.20
2023-03-30T00:47:01.901Z,92.40
2023-03-30T00:49:32.043Z,92.80
2023-03-30T00:52:00.985Z,93.40
2023-03-30T00:54:28.987Z,93.60
2023-03-30T00:56:57.078Z,93.90
2023-03-30T00:59:24.918Z,93.60
2023-03-30T01:01:52.707Z,93.50
2023-03-30T01:04:20.993Z,94.00
2023-03-30T01:06:49.694Z,94.60
2023-03-30T01:09:19.078Z,94.80
2023-03-30T01:11:47.148Z,95.00
2023-03-30T01:14:16.438Z,94.40
2023-03-30T01:17:22.570Z,94.80
2023-03-30T01:20:17.049Z,95.00
2023-03-30T01:23:06.096Z,95.30
2023-03-30T01:25:45.995Z,95.30
2023-03-30T01:28:35.181Z,94.50
2023-03-30T01:31:20.496Z,94.20
2023-03-30T01:34:20.232Z,94.70
2023-03-30T01:37:23.162Z,95.10
2023-03-30T01:39:59.208Z,95.10
2023-03-30T01:42:41.744Z,95.40
2023-03-30T01:45:12.040Z,95.30
2023-03-30T01:47:58.260Z,95.30
2023-03-30T01:50:33.672Z,95.90
2023-03-30T01:53:16.166Z,96.10
2023-03-30T01:56:06.794Z,96.10
2023-03-30T01:58:46.060Z,96.40
2023-03-30T02:01:17.556Z,96.60
2023-03-30T02:03:50.268Z,95.70
2023-03-30T02:06:41.464Z,97.00
2023-03-30T02:09:12.960Z,96.80
2023-03-30T02:11:44.022Z,96.60
2023-03-30T02:14:16.523Z,97.10
2023-03-30T02:16:54.653Z,97.20
2023-03-30T02:19:22.648Z,97.40
2023-03-30T02:21:51.259Z,96.70
2023-03-30T02:24:25.787Z,95.60
2023-03-30T02:26:54.613Z,95.80
2023-03-30T02:29:23.360Z,95.20
2023-03-30T02:31:56.816Z,96.80
2023-03-30T02:34:39.957Z,96.50
2023-03-30T02:37:16.430Z,96.70
2023-03-30T02:39:52.996Z,96.90
2023-03-30T02:42:32.627Z,96.70
2023-03-30T02:45:12.494Z,96.70
2023-03-30T02:48:18.140Z,96.60
2023-03-30T02:51:18.800Z,96.20
2023-03-30T02:54:18.366Z,96.20
2023-03-30T02:57:39.310Z,96.00
2023-03-30T03:00:59.630Z,97.50
2023-03-30T03:03:39.208Z,97.40
2023-03-30T03:06:09.487Z,97.40
2023-03-30T03:08:47.859Z,97.20
2023-03-30T03:11:21.708Z,97.50
2023-03-30T03:13:50.064Z,97.60
2023-03-30T03:16:18.548Z,98.00
2023-03-30T03:19:05.384Z,98.90
2023-03-30T03:21:33.216Z,98.90
2023-03-30T03:24:01.876Z,98.40
2023-03-30T03:26:49.494Z,97.90
2023-03-30T03:29:17.819Z,99.00
2023-03-30T03:31:45.510Z,99.00
2023-03-30T03:34:14.423Z,99.70
2023-03-30T03:37:02.396Z,99.80
2023-03-30T03:39:33.118Z,99.90
2023-03-30T03:42:10.568Z,99.90
2023-03-30T03:44:47.216Z,99.40
2023-03-30T03:47:18.204Z,98.90
2023-03-30T03:49:47.276Z,98.30
2023-03-30T03:52:15.108Z,97.90
2023-03-30T03:54:42.663Z,98.80
2023-03-30T03:57:10.484Z,99.80
2023-03-30T03:59:38.346Z,99.40
2023-03-30T04:02:06.724Z,99.10
2023-03-30T04:04:34.529Z,99.30
2023-03-30T04:07:02.165Z,99.00
2023-03-30T04:09:29.798Z,98.90
2023-03-30T04:12:04.463Z,97.90
2023-03-30T04:14:50.973Z,98.10
2023-03-30T04:17:33.796Z,99.20
2023-03-30T04:20:19.859Z,99.30
2023-03-30T04:23:01.736Z,99.60
2023-03-30T04:25:52.352Z,99.90
2023-03-30T04:28:40.354Z,99.90
2023-03-30T04:31:47.636Z,99.70
2023-03-30T04:34:44.782Z,99.50
2023-03-30T04:37:30.473Z,99.90
2023-03-30T04:40:16.595Z,99.90
2023-03-30T04:42:53.472Z,99.40
2023-03-30T04:45:55.603Z,99.00
2023-03-30T04:48:39.942Z,99.20
2023-03-30T04:51:33.574Z,98.20
2023-03-30T04:54:19.796Z,98.60
2023-03-30T04:57:05.932Z,98.80
2023-03-30T04:59:41.058Z,98.60
2023-03-30T05:02:27.760Z,97.90
2023-03-30T05:05:16.960Z,96.50
2023-03-30T05:08:10.802Z,96.60
2023-03-30T05:11:01.229Z,97.00
2023-03-30T05:13:47.561Z,97.10
2023-03-30T05:16:34.054Z,98.10
2023-03-30T05:19:27.787Z,99.80
2023-03-30T05:22:21.285Z,98.70
2023-03-30T05:25:08.082Z,98.70
2023-03-30T05:27:50.978Z,99.10
2023-03-30T05:30:37.008Z,99.00
2023-03-30T05:33:36.911Z,98.90
2023-03-30T05:36:33.520Z,98.10
2023-03-30T05:39:16.063Z,98.80
2023-03-30T05:42:02.610Z,98.70
2023-03-30T05:44:40.504Z,98.50
2023-03-30T05:47:26.503Z,97.90
2023-03-30T05:50:27.115Z,97.30
2023-03-30T05:53:04.103Z,96.90
2023-03-30T05:55:47.895Z,96.30
2023-03-30T05:58:34.000Z,95.90
2023-03-30T06:01:20.991Z,96.10
2023-03-30T06:03:49.997Z,95.70
2023-03-30T06:06:17.982Z,95.20
2023-03-30T06:08:49.481Z,94.70
2023-03-30T06:11:21.547Z,93.50
2023-03-30T06:13:56.696Z,92.10
2023-03-30T06:16:25.712Z,91.60
2023-03-30T06:18:53.507Z,91.10
2023-03-30T06:21:22.741Z,91.20
2023-03-30T06:24:10.373Z,90.30
2023-03-30T06:26:41.206Z,91.00
2023-03-30T06:29:08.898Z,91.10
2023-03-30T06:31:37.427Z,90.40
2023-03-30T06:34:25.096Z,90.50
2023-03-30T06:36:54.025Z,90.00
2023-03-30T06:39:25.419Z,89.20
2023-03-30T06:41:53.147Z,83.80
2023-03-30T06:44:34.448Z,84.90
2023-03-30T06:47:07.689Z,83.70
2023-03-30T06:49:35.309Z,82.20
2023-03-30T06:52:21.669Z,80.20
2023-03-30T06:54:50.734Z,82.20
2023-03-30T06:57:18.349Z,82.10
2023-03-30T06:59:46.162Z,82.90
2023-03-30T07:02:23.089Z,82.40
2023-03-30T07:05:09.874Z,81.90
2023-03-30T07:07:58.414Z,82.90
2023-03-30T07:10:26.704Z,83.20
2023-03-30T07:12:56.234Z,82.80
2023-03-30T07:15:27.548Z,82.30
2023-03-30T07:17:55.881Z,80.50
2023-03-30T07:20:23.495Z,81.50
2023-03-30T07:23:07.925Z,81.90
2023-03-30T07:25:36.505Z,84.30
2023-03-30T07:28:12.492Z,82.60
2023-03-30T07:30:40.842Z,80.70
2023-03-30T07:33:10.555Z,82.40
2023-03-30T07:35:46.762Z,82.30
2023-03-30T07:38:19.311Z,81.20
2023-03-30T07:40:52.748Z,80.90
2023-03-30T07:43:22.412Z,81.20
2023-03-30T07:45:51.104Z,79.80
2023-03-30T07:48:25.472Z,81.50
2023-03-30T07:51:04.464Z,81.60
2023-03-30T07:53:37.086Z,78.70
2023-03-30T07:56:12.236Z,78.30
2023-03-30T07:58:48.096Z,78.70
2023-03-30T08:01:17.905Z,78.70
2023-03-30T08:03:51.632Z,78.30
2023-03-30T08:06:19.697Z,77.50
2023-03-30T08:08:49.453Z,77.50
2023-03-30T08:11:17.226Z,77.50
2023-03-30T08:13:45.032Z,77.70
2023-03-30T08:16:12.862Z,77.50
2023-03-30T08:18:43.212Z,78.00
2023-03-30T08:21:11.213Z,77.80
2023-03-30T08:23:38.962Z,78.20
2023-03-30T08:26:06.583Z,77.70
2023-03-30T08:28:34.248Z,77.00
2023-03-30T08:31:06.601Z,78.10
2023-03-30T08:33:35.147Z,78.80
2023-03-30T08:36:03.408Z,77.40
2023-03-30T08:38:31.260Z,78.00
2023-03-30T08:40:59.136Z,77.80
2023-03-30T08:43:29.568Z,77.90
2023-03-30T08:46:00.649Z,77.30
2023-03-30T08:48:37.739Z,76.50
2023-03-30T08:51:25.677Z,75.20
2023-03-30T08:54:08.908Z,77.00
2023-03-30T08:56:43.116Z,76.70
2023-03-30T08:59:38.531Z,77.00
2023-03-30T09:02:37.957Z,77.40
2023-03-30T09:05:23.127Z,77.00
2023-03-30T09:08:00.534Z,77.20
2023-03-30T09:10:31.912Z,75.70
2023-03-30T09:13:02.714Z,76.00
2023-03-30T09:15:39.701Z,76.50
2023-03-30T09:18:31.308Z,76.40
2023-03-30T09:21:01.301Z,76.50
2023-03-30T09:23:31.992Z,76.90
2023-03-30T09:26:19.244Z,77.10
2023-03-30T09:28:56.225Z,76.50
2023-03-30T09:31:33.385Z,76.80
2023-03-30T09:34:08.479Z,76.50
2023-03-30T09:37:04.887Z,77.00
2023-03-30T09:39:35.494Z,75.70
2023-03-30T09:42:24.760Z,74.60
2023-03-30T09:45:13.783Z,74.70
2023-03-30T09:47:42.536Z,76.60
2023-03-30T09:50:16.713Z,74.90
2023-03-30T09:52:57.549Z,75.00
2023-03-30T09:55:29.892Z,77.20
2023-03-30T09:58:31.168Z,76.60
2023-03-30T10:01:14.779Z,75.00
2023-03-30T10:03:44.272Z,75.50
2023-03-30T10:06:17.921Z,76.00
2023-03-30T10:08:55.557Z,77.20
2023-03-30T10:11:41.307Z,77.30
2023-03-30T10:14:30.469Z,76.00
2023-03-30T10:16:59.641Z,75.20
2023-03-30T10:19:28.427Z,74.40
2023-03-30T10:21:58.964Z,77.40
2023-03-30T10:24:29.796Z,75.50
2023-03-30T10:27:11.743Z,76.00
2023-03-30T10:29:44.659Z,76.10
2023-03-30T10:32:14.989Z,75.00
2023-03-30T10:34:55.895Z,75.50
2023-03-30T10:37:34.368Z,75.80
2023-03-30T10:40:11.321Z,75.70
2023-03-30T10:42:41.117Z,75.10
2023-03-30T10:45:19.479Z,75.90
2023-03-30T10:48:04.037Z,74.20
2023-03-30T10:50:50.241Z,74.10
2023-03-30T10:53:23.735Z,74.40
2023-03-30T10:55:57.023Z,74.20
2023-03-30T10:58:45.568Z,75.30
2023-03-30T11:01:47.769Z,74.40
2023-03-30T11:04:43.943Z,73.60
2023-03-30T11:07:51.904Z,74.40
2023-03-30T11:10:37.253Z,74.10
2023-03-30T11:13:17.790Z,74.60
2023-03-30T11:15:55.061Z,74.60
2023-03-30T11:18:32.316Z,74.50
2023-03-30T11:21:15.668Z,76.20
2023-03-30T11:23:57.555Z,75.50
2023-03-30T11:26:36.240Z,75.70
2023-03-30T11:29:28.190Z,75.60
2023-03-30T11:32:08.270Z,74.60
2023-03-30T11:34:53.593Z,75.50
2023-03-30T11:38:01.612Z,75.60
2023-03-30T11:40:41.111Z,74.00
2023-03-30T11:43:11.910Z,74.70
2023-03-30T11:45:48.711Z,74.50
2023-03-30T11:48:29.338Z,72.70
2023-03-30T11:51:22.714Z,73.70
2023-03-30T11:54:26.307Z,73.60
2023-03-30T11:57:17.628Z,74.80
2023-03-30T11:59:52.938Z,72.70
2023-03-30T12:02:56.161Z,72.00
2023-03-30T12:05:23.882Z,72.20
2023-03-30T12:08:11.010Z,71.60
2023-03-30T12:10:44.751Z,73.20
2023-03-30T12:13:19.211Z,72.40
2023-03-30T12:15:55.904Z,72.10
2023-03-30T12:18:40.058Z,72.00
2023-03-30T12:21:26.004Z,72.00
2023-03-30T12:24:02.792Z,71.00
2023-03-30T12:26:34.667Z,72.00
2023-03-30T12:32:03.627Z,72.00
2023-03-30T12:34:40.725Z,71.70
2023-03-30T12:37:30.378Z,70.90
2023-03-30T12:40:09.764Z,72.50
2023-03-30T12:42:47.073Z,70.60
2023-03-30T12:45:34.664Z,71.30
2023-03-30T12:48:22.251Z,71.60
2023-03-30T12:50:57.258Z,71.80
2023-03-30T12:53:46.339Z,72.00
2023-03-30T12:56:41.368Z,71.60
2023-03-30T12:59:31.091Z,71.10
2023-03-30T13:02:17.531Z,72.50
2023-03-30T13:04:49.271Z,72.30
2023-03-30T13:07:24.641Z,73.30
2023-03-30T13:10:20.341Z,73.10
2023-03-30T13:12:49.799Z,73.50
2023-03-30T13:15:17.383Z,73.20
2023-03-30T13:17:56.248Z,73.80
2023-03-30T13:20:57.326Z,73.40
2023-03-30T13:23:34.001Z,73.50
2023-03-30T13:29:08.310Z,74.00
2023-03-30T13:31:51.261Z,74.70
2023-03-30T13:34:44.974Z,74.20
2023-03-30T13:37:48.605Z,74.50
2023-03-30T13:40:39.599Z,75.10
2023-03-30T13:43:39.501Z,75.10
2023-03-30T13:46:31.460Z,75.80
2023-03-30T13:49:36.979Z,75.70
2023-03-30T13:52:43.186Z,76.20
2023-03-30T13:55:23.730Z,76.70
2023-03-30T13:57:58.773Z,75.80
2023-03-30T14:00:33.413Z,75.50
2023-03-30T14:03:31.010Z,76.90
2023-03-30T14:06:03.685Z,76.70
2023-03-30T14:08:36.939Z,76.90
2023-03-30T14:11:18.426Z,76.50
2023-03-30T14:13:49.354Z,76.40
2023-03-30T14:16:25.933Z,76.80
2023-03-30T14:19:08.143Z,76.50
2023-03-30T14:21:38.018Z,77.10
2023-03-30T14:24:06.315Z,77.10
2023-03-30T14:26:39.396Z,77.50
2023-03-30T14:29:24.621Z,77.50
2023-03-30T14:32:07.481Z,77.60
2023-03-30T14:34:36.233Z,77.00
2023-03-30T14:37:07.766Z,77.60
2023-03-30T14:39:51.987Z,77.40
2023-03-30T14:42:22.525Z,77.50
2023-03-30T14:44:53.708Z,77.20
2023-03-30T14:47:25.209Z,77.40
2023-03-30T14:49:58.795Z,77.00
2023-03-30T14:52:39.194Z,78.00
2023-03-30T14:55:15.958Z,77.30
2023-03-30T14:57:46.948Z,78.50
2023-03-30T15:00:23.209Z,77.50
2023-03-30T15:03:02.279Z,77.70
2023-03-30T15:05:41.739Z,78.10
2023-03-30T15:08:26.842Z,77.80
2023-03-30T15:10:57.188Z,77.80
2023-03-30T15:13:39.185Z,77.60
2023-03-30T15:16:07.713Z,78.40
2023-03-30T15:18:36.905Z,78.60
2023-03-30T15:21:05.638Z,78.30
2023-03-30T15:23:41.373Z,78.30
2023-03-30T15:26:10.010Z,78.60
2023-03-30T15:28:53.676Z,78.90
2023-03-30T15:31:21.566Z,80.10
2023-03-30T15:33:55.133Z,81.00
2023-03-30T15:36:25.910Z,80.90
2023-03-30T15:38:56.325Z,81.60
2023-03-30T15:41:44.118Z,82.30
2023-03-30T15:44:20.100Z,82.30
2023-03-30T15:46:54.721Z,87.30
2023-03-30T15:49:53.615Z,90.00
2023-03-30T15:52:41.820Z,91.60
2023-03-30T15:55:27.294Z,93.60
2023-03-30T15:57:55.365Z,97.60
2023-03-30T16:00:28.585Z,99.60
2023-03-30T16:02:58.555Z,99.90
2023-03-30T16:05:36.171Z,99.90
2023-03-30T16:08:05.540Z,99.90
2023-03-30T16:10:33.861Z,99.90
2023-03-30T16:13:02.366Z,99.90
2023-03-30T16:15:33.132Z,99.90
2023-03-30T16:18:01.467Z,99.90
2023-03-30T16:20:31.674Z,99.90
2023-03-30T16:23:00.043Z,99.90
2023-03-30T16:27:59.304Z,99.90
2023-03-30T16:30:38.929Z,99.90
2023-03-30T16:33:07.238Z,99.90
2023-03-30T16:35:35.349Z,99.90
2023-03-30T16:38:03.702Z,99.90
2023-03-30T16:40:39.028Z,99.90
2023-03-30T16:43:08.578Z,99.90
2023-03-30T16:45:36.948Z,99.90
2023-03-30T16:48:05.604Z,99.90
2023-03-30T16:50:49.298Z,99.90
2023-03-30T16:53:17.176Z,99.90
2023-03-30T16:55:45.421Z,99.90
2023-03-30T16:58:14.890Z,99.90
2023-03-30T17:00:47.402Z,99.90
2023-03-30T17:03:20.035Z,99.90
2023-03-30T17:05:48.969Z,99.90
2023-03-30T17:08:21.356Z,99.90
2023-03-30T17:10:49.720Z,99.90
2023-03-30T17:13:17.683Z,99.90
2023-03-30T17:15:46.773Z,99.90
2023-03-30T17:18:23.774Z,99.90
2023-03-30T17:20:56.587Z,99.90
2023-03-30T17:23:26.698Z,99.90
2023-03-30T17:25:56.479Z,99.90
2023-03-30T17:28:33.080Z,99.90
2023-03-30T17:31:03.641Z,99.90
2023-03-30T17:33:33.003Z,99.90
2023-03-30T17:36:04.368Z,99.90
2023-03-30T17:38:33.783Z,99.90
2023-03-30T17:41:02.834Z,99.90
2023-03-30T17:43:31.818Z,99.90
2023-03-30T17:46:00.297Z,99.90
2023-03-30T17:48:28.777Z,99.90
2023-03-30T17:50:57.173Z,99.90
2023-03-30T17:53:26.364Z,99.90
2023-03-30T17:55:54.709Z,99.90
2023-03-30T17:58:25.082Z,99.90
2023-03-30T18:00:54.391Z,99.90
2023-03-30T18:03:25.853Z,99.90
2023-03-30T18:05:55.028Z,99.90
2023-03-30T18:08:24.659Z,99.90
2023-03-30T18:10:59.458Z,99.90
2023-03-30T18:13:30.106Z,99.90
2023-03-30T18:16:00.178Z,99.90
2023-03-30T18:18:31.758Z,99.90
2023-03-30T18:21:05.789Z,99.90
2023-03-30T18:23:35.225Z,99.90
2023-03-30T18:26:10.929Z,99.90
2023-03-30T18:28:44.671Z,99.90
2023-03-30T18:31:12.868Z,99.90
2023-03-30T18:33:43.161Z,99.90
2023-03-30T18:36:14.098Z,99.90
2023-03-30T18:38:44.180Z,99.90
2023-03-30T18:41:17.369Z,99.90
2023-03-30T18:43:47.861Z,99.90
2023-03-30T18:46:17.293Z,99.90
2023-03-30T18:48:46.081Z,99.90
2023-03-30T18:51:17.734Z,99.90
2023-03-30T18:53:46.559Z,99.90
2023-03-30T18:56:16.763Z,99.90
2023-03-30T18:58:47.172Z,99.90
2023-03-30T19:01:16.253Z,99.90
2023-03-30T19:03:46.495Z,99.90
2023-03-30T19:06:27.926Z,99.90
2023-03-30T19:08:59.114Z,99.90
2023-03-30T19:11:31.432Z,99.90
2023-03-30T19:14:02.591Z,99.90
2023-03-30T19:16:31.686Z,99.90
2023-03-30T19:19:01.830Z,99.90
2023-03-30T19:21:30.253Z,99.90
2023-03-30T19:23:59.068Z,99.90
2023-03-30T19:26:27.987Z,99.90
2023-03-30T19:28:56.893Z,99.90
2023-03-30T19:31:27.899Z,99.90
2023-03-30T19:33:58.693Z,99.90
2023-03-30T19:36:28.352Z,99.90
2023-03-30T19:38:57.109Z,99.90
2023-03-30T19:41:28.096Z,99.90
2023-03-30T19:43:57.018Z,99.90
2023-03-30T19:46:26.932Z,99.90
2023-03-30T19:48:55.663Z,99.90
2023-03-30T19:51:26.050Z,99.90
2023-03-30T19:54:01.889Z,99.90
2023-03-30T19:56:30.612Z,99.90
2023-03-30T19:59:00.445Z,99.90
2023-03-30T20:01:29.101Z,99.90
2023-03-30T20:04:00.216Z,99.90
2023-03-30T20:06:29.897Z,99.90
2023-03-30T20:08:59.491Z,99.90
2023-03-30T20:11:28.414Z,99.90
2023-03-30T20:13:56.810Z,99.90
2023-03-30T20:16:26.301Z,99.90
2023-03-30T20:18:55.619Z,99.90
2023-03-30T20:21:26.432Z,99.90
2023-03-30T20:23:56.269Z,99.90
2023-03-30T20:26:24.700Z,99.90
2023-03-30T20:28:52.731Z,99.90
2023-03-30T20:31:20.858Z,99.90
2023-03-30T20:33:48.825Z,99.90
2023-03-30T20:36:16.654Z,99.90
2023-03-30T20:38:47.249Z,99.90
2023-03-30T20:41:17.094Z,99.90
2023-03-30T20:43:56.826Z,99.90
2023-03-30T20:46:26.148Z,99.90
2023-03-30T20:49:02.044Z,99.90
2023-03-30T20:51:30.133Z,99.90
2023-03-30T20:53:58.110Z,99.90
2023-03-30T20:56:28.301Z,99.90
2023-03-30T20:58:56.688Z,99.90
2023-03-30T21:01:27.376Z,99.90
2023-03-30T21:03:57.919Z,99.90
2023-03-30T21:06:28.348Z,99.90
2023-03-30T21:08:58.824Z,99.90
2023-03-30T21:11:27.408Z,99.90
2023-03-30T21:13:56.717Z,99.90
2023-03-30T21:16:25.851Z,99.90
2023-03-30T21:18:53.976Z,99.90
2023-03-30T21:21:21.923Z,99.90
2023-03-30T21:23:49.644Z,99.90
2023-03-30T21:26:19.807Z,99.90
2023-03-30T21:28:47.684Z,99.90
2023-03-30T21:31:16.744Z,99.90
2023-03-30T21:33:45.064Z,99.90
2023-03-30T21:36:13.376Z,99.90
2023-03-30T21:38:41.098Z,99.90
2023-03-30T21:41:17.155Z,99.90
2023-03-30T21:43:47.665Z,99.90
2023-03-30T21:46:18.278Z,99.90
2023-03-30T21:48:47.090Z,99.90
2023-03-30T21:51:14.791Z,99.90
2023-03-30T21:53:44.101Z,99.90
2023-03-30T21:56:12.842Z,99.90
2023-03-30T21:58:40.789Z,99.90
2023-03-30T22:01:12.254Z,99.90
2023-03-30T22:03:45.995Z,99.90
2023-03-30T22:06:16.391Z,99.90
2023-03-30T22:08:45.569Z,99.90
2023-03-30T22:11:16.793Z,99.90
2023-03-30T22:13:46.814Z,99.90
2023-03-30T22:16:24.476Z,99.90
2023-03-30T22:18:52.599Z,99.90
2023-03-30T22:21:24.108Z,99.90
2023-03-30T22:23:54.982Z,99.90
2023-03-30T22:26:23.294Z,99.90
2023-03-30T22:28:51.093Z,99.90
2023-03-30T22:31:18.973Z,99.90
2023-03-30T22:33:47.275Z,99.90
2023-03-30T22:36:33.341Z,99.90
2023-03-30T22:39:02.717Z,99.90
2023-03-30T22:41:30.778Z,99.90
2023-03-30T22:43:58.678Z,99.90
2023-03-30T22:46:27.602Z,99.90
2023-03-30T22:48:58.191Z,99.90
2023-03-30T22:51:26.750Z,99.90
2023-03-30T22:53:59.562Z,99.90
2023-03-30T22:56:29.663Z,99.90
2023-03-30T22:58:59.005Z,99.90
2023-03-30T23:01:29.277Z,99.90
2023-03-30T23:03:59.831Z,99.90
2023-03-30T23:06:27.787Z,99.90
2023-03-30T23:08:55.439Z,99.90
2023-03-30T23:11:23.735Z,99.90
2023-03-30T23:13:52.880Z,99.90
2023-03-30T23:16:20.894Z,99.90
2023-03-30T23:18:52.339Z,99.90
2023-03-30T23:21:22.400Z,99.90
2023-03-30T23:23:50.980Z,99.90
2023-03-30T23:26:19.614Z,99.90
2023-03-30T23:28:48.036Z,99.90
2023-03-30T23:31:18.147Z,99.90
2023-03-30T23:33:46.026Z,99.90
2023-03-30T23:36:14.247Z,99.90
2023-03-30T23:38:43.032Z,99.90
2023-03-30T23:41:13.316Z,99.90
2023-03-30T23:43:41.084Z,99.90
2023-03-30T23:46:10.100Z,99.90
2023-03-30T23:48:38.432Z,99.90
2023-03-30T23:51:06.843Z,99.90
2023-03-30T23:53:34.677Z,99.90
2023-03-30T23:56:06.627Z,99.90
2023-03-30T23:58:34.638Z,99.90
